Time;durP1;ratioP1;P1;durP2;ratioP2;P2;SDS_P1;SDS_P2;PMS_P1;PMS_P2;Temp;Humidity;BMP_temperature;BMP_pressure;BME280_temperature;BME280_humidity;BME280_pressure;Samples;Min_cycle;Max_cycle;Signal;HPM_P1;HPM_P2
2021/07/09 00:01:55;;;;;;;1.50;1.00;;;18.30;98.20;;;;;;5000669;28;20464;-82
2021/07/09 00:04:23;;;;;;;1.50;0.90;;;18.40;98.20;;;;;;5004498;28;20495;-83
2021/07/09 00:06:51;;;;;;;1.50;1.00;;;18.40;98.20;;;;;;5008440;28;20519;-83
2021/07/09 00:09:21;;;;;;;1.50;1.00;;;18.40;98.20;;;;;;5004906;28;20465;-84
2021/07/09 00:11:52;;;;;;;1.50;1.00;;;18.40;98.20;;;;;;4997034;28;20472;-83
2021/07/09 00:14:24;;;;;;;1.50;0.90;;;18.40;98.20;;;;;;5009347;28;20484;-83
2021/07/09 00:16:51;;;;;;;1.50;0.90;;;18.30;98.20;;;;;;5004923;28;20504;-82
2021/07/09 00:19:18;;;;;;;1.50;0.90;;;18.30;98.20;;;;;;5003637;28;20464;-82
2021/07/09 00:21:45;;;;;;;1.53;1.00;;;18.30;98.20;;;;;;5006415;28;20479;-83
2021/07/09 00:24:15;;;;;;;1.50;1.00;;;18.30;98.20;;;;;;5003329;28;20515;-83
2021/07/09 00:26:42;;;;;;;1.50;0.93;;;18.30;98.20;;;;;;4996853;28;20488;-83
2021/07/09 00:29:15;;;;;;;1.50;1.00;;;18.40;98.20;;;;;;5005925;28;20464;-83
2021/07/09 00:31:55;;;;;;;1.50;0.97;;;18.40;98.20;;;;;;5007092;28;20460;-83
2021/07/09 00:34:22;;;;;;;1.50;0.90;;;18.40;98.20;;;;;;4998483;28;20480;-82
2021/07/09 00:36:50;;;;;;;1.50;1.00;;;18.40;98.20;;;;;;5000561;28;20476;-83
2021/07/09 00:39:17;;;;;;;1.50;0.90;;;18.40;98.20;;;;;;4999802;28;21014;-83
2021/07/09 00:41:44;;;;;;;1.50;0.90;;;18.40;98.20;;;;;;5000234;28;20523;-83
2021/07/09 00:44:11;;;;;;;1.50;0.90;;;18.40;98.20;;;;;;5008416;28;20984;-83
2021/07/09 00:46:47;;;;;;;1.50;0.90;;;18.40;98.20;;;;;;5002942;28;20492;-82
2021/07/09 00:49:15;;;;;;;1.50;0.90;;;18.40;98.20;;;;;;5004357;28;20461;-82
2021/07/09 00:51:42;;;;;;;1.50;1.00;;;18.40;98.20;;;;;;5000799;28;20464;-83
2021/07/09 00:54:13;;;;;;;1.50;0.97;;;18.40;98.20;;;;;;4992674;28;20477;-82
2021/07/09 00:56:40;;;;;;;1.50;1.00;;;18.30;98.20;;;;;;4999006;28;20498;-83
2021/07/09 00:59:13;;;;;;;1.50;1.00;;;18.30;98.20;;;;;;4998304;28;20469;-82
2021/07/09 01:01:40;;;;;;;1.50;1.00;;;18.30;98.20;;;;;;4990351;28;20952;-83
2021/07/09 01:04:07;;;;;;;1.50;0.90;;;18.30;98.20;;;;;;4992751;28;20461;-83
2021/07/09 01:06:35;;;;;;;1.50;0.90;;;18.30;98.20;;;;;;4991967;28;20544;-82
2021/07/09 01:09:01;;;;;;;1.50;1.00;;;18.30;98.20;;;;;;5001380;28;20474;-82
2021/07/09 01:11:28;;;;;;;1.50;0.90;;;18.30;98.20;;;;;;5003725;28;20468;-83
2021/07/09 01:13:55;;;;;;;1.50;0.90;;;18.30;98.20;;;;;;4999792;28;20463;-83
2021/07/09 01:16:28;;;;;;;1.50;0.90;;;18.30;98.20;;;;;;5000293;28;20840;-82
2021/07/09 01:18:56;;;;;;;1.50;0.90;;;18.30;98.20;;;;;;5002308;28;20552;-82
2021/07/09 01:21:23;;;;;;;1.50;0.90;;;18.20;98.20;;;;;;4999747;28;20464;-83
2021/07/09 01:24:08;;;;;;;1.50;0.90;;;18.20;98.20;;;;;;5005094;28;20464;-82
2021/07/09 01:26:41;;;;;;;1.50;0.90;;;18.20;98.20;;;;;;4999063;28;20599;-82
2021/07/09 01:29:12;;;;;;;1.50;0.90;;;18.20;98.20;;;;;;4998037;28;20468;-83
2021/07/09 01:31:39;;;;;;;1.50;0.90;;;18.20;98.20;;;;;;4998899;28;20507;-82
2021/07/09 01:34:08;;;;;;;1.50;0.90;;;18.20;98.20;;;;;;5003983;28;20460;-83
2021/07/09 01:36:37;;;;;;;1.53;0.93;;;18.20;98.20;;;;;;5001163;28;20460;-82
2021/07/09 01:39:06;;;;;;;1.50;1.10;;;18.20;98.20;;;;;;4998211;28;20477;-82
2021/07/09 01:41:33;;;;;;;1.50;0.90;;;18.20;98.20;;;;;;4997752;28;20968;-83
2021/07/09 01:44:07;;;;;;;1.50;0.97;;;18.20;98.20;;;;;;5001223;28;20469;-83
2021/07/09 01:46:34;;;;;;;1.50;1.00;;;18.30;98.20;;;;;;5000941;28;20514;-82
2021/07/09 01:49:05;;;;;;;1.50;0.90;;;18.30;98.20;;;;;;4994585;28;21098;-82
2021/07/09 01:51:36;;;;;;;1.50;0.90;;;18.30;98.20;;;;;;5007623;28;20492;-82
2021/07/09 01:54:05;;;;;;;1.50;0.90;;;18.30;98.20;;;;;;4990838;28;20833;-82
2021/07/09 01:56:32;;;;;;;1.50;1.00;;;18.30;98.20;;;;;;4999376;28;20457;-82
2021/07/09 01:58:59;;;;;;;1.50;0.90;;;18.30;98.20;;;;;;5008820;28;20541;-83
2021/07/09 02:01:30;;;;;;;1.50;0.90;;;18.30;98.20;;;;;;4991063;28;21027;-82
2021/07/09 02:03:57;;;;;;;1.50;0.90;;;18.30;98.20;;;;;;4994937;28;20814;-83
2021/07/09 02:06:23;;;;;;;1.50;0.90;;;18.30;98.20;;;;;;5004867;28;20479;-83
2021/07/09 02:08:50;;;;;;;1.50;0.90;;;18.30;98.20;;;;;;5008898;28;20555;-83
2021/07/09 02:11:22;;;;;;;1.50;0.90;;;18.30;98.20;;;;;;5006147;28;20465;-82
2021/07/09 02:13:49;;;;;;;1.50;0.97;;;18.20;98.20;;;;;;5010412;28;20469;-82
2021/07/09 02:16:16;;;;;;;1.50;0.93;;;18.20;98.20;;;;;;5009321;28;20468;-83
2021/07/09 02:18:46;;;;;;;1.50;1.00;;;18.20;98.20;;;;;;5011377;28;20460;-82
2021/07/09 02:21:16;;;;;;;1.50;0.90;;;18.20;98.20;;;;;;4999755;28;20464;-82
2021/07/09 02:23:42;;;;;;;1.50;0.90;;;18.20;98.20;;;;;;4993006;28;20465;-82
2021/07/09 02:26:09;;;;;;;1.50;1.00;;;18.20;98.20;;;;;;4999419;28;20491;-82
2021/07/09 02:28:41;;;;;;;1.50;0.90;;;18.20;98.20;;;;;;5010496;28;20477;-82
2021/07/09 02:31:08;;;;;;;1.50;1.00;;;18.20;98.20;;;;;;5000641;28;20468;-82
2021/07/09 02:33:35;;;;;;;1.53;1.00;;;18.20;98.20;;;;;;5006623;28;20551;-82
2021/07/09 02:36:02;;;;;;;1.50;0.90;;;18.20;98.20;;;;;;5009938;28;20854;-82
2021/07/09 02:38:29;;;;;;;1.50;1.00;;;18.20;98.20;;;;;;4999118;28;20465;-82
2021/07/09 02:40:56;;;;;;;1.50;0.97;;;18.20;98.20;;;;;;5010346;28;20467;-82
2021/07/09 02:43:23;;;;;;;1.50;0.97;;;18.20;98.20;;;;;;4995099;28;20467;-82
2021/07/09 02:45:53;;;;;;;1.50;0.90;;;18.20;98.20;;;;;;5009328;28;20850;-82
2021/07/09 02:48:20;;;;;;;1.50;0.93;;;18.20;98.20;;;;;;5002518;28;20479;-82
2021/07/09 02:50:48;;;;;;;1.50;1.10;;;18.20;98.20;;;;;;4999092;28;20468;-82
2021/07/09 02:53:15;;;;;;;1.50;0.90;;;18.20;98.20;;;;;;4998588;28;20468;-81
2021/07/09 02:55:42;;;;;;;1.50;1.00;;;18.20;98.20;;;;;;5010865;28;20786;-82
2021/07/09 02:58:12;;;;;;;1.53;1.03;;;18.20;98.20;;;;;;5001927;28;20975;-82
2021/07/09 03:00:40;;;;;;;1.50;0.90;;;18.20;98.20;;;;;;5006060;28;20472;-82
2021/07/09 03:03:11;;;;;;;1.50;0.90;;;18.10;98.20;;;;;;5007918;28;20463;-83
2021/07/09 03:05:38;;;;;;;1.50;1.00;;;18.10;98.20;;;;;;5008525;28;20480;-82
2021/07/09 03:08:06;;;;;;;1.50;1.00;;;18.10;98.20;;;;;;5010060;28;20561;-82
2021/07/09 03:10:42;;;;;;;1.50;0.90;;;18.10;98.20;;;;;;4999849;28;20669;-82
2021/07/09 03:13:15;;;;;;;1.50;0.90;;;18.10;98.20;;;;;;4998162;28;20889;-83
2021/07/09 03:15:47;;;;;;;1.50;0.90;;;18.10;98.20;;;;;;5004759;28;20480;-82
2021/07/09 03:18:20;;;;;;;1.60;1.10;;;18.10;98.20;;;;;;5006142;28;20766;-83
2021/07/09 03:20:54;;;;;;;1.50;1.00;;;18.10;98.20;;;;;;5004290;28;20464;-83
2021/07/09 03:23:26;;;;;;;1.50;0.90;;;18.10;98.20;;;;;;5007157;28;20461;-83
2021/07/09 03:25:57;;;;;;;1.50;0.90;;;18.10;98.20;;;;;;5006274;28;20488;-82
2021/07/09 03:28:32;;;;;;;1.50;0.90;;;18.10;98.20;;;;;;5006623;28;20874;-82
2021/07/09 03:33:54;;;;;;;1.53;1.00;;;18.10;98.20;;;;;;4997649;28;20468;-83
2021/07/09 03:36:21;;;;;;;1.50;0.90;;;18.00;98.20;;;;;;4996348;28;20470;-82
2021/07/09 03:38:49;;;;;;;1.50;0.90;;;18.00;98.20;;;;;;4999543;28;20588;-83
2021/07/09 03:41:16;;;;;;;1.50;1.00;;;18.00;98.20;;;;;;4999104;28;20960;-83
2021/07/09 03:43:48;;;;;;;1.50;0.90;;;18.00;98.20;;;;;;4999082;28;20676;-83
2021/07/09 03:46:20;;;;;;;1.50;0.90;;;18.00;98.20;;;;;;5003067;28;20507;-83
2021/07/09 03:48:48;;;;;;;1.50;0.90;;;18.00;98.20;;;;;;5010491;28;20491;-83
2021/07/09 03:51:24;;;;;;;1.50;1.00;;;18.00;98.20;;;;;;5004823;28;20480;-83
2021/07/09 03:53:54;;;;;;;1.50;0.90;;;18.00;98.20;;;;;;4998690;28;20464;-83
2021/07/09 03:56:21;;;;;;;1.50;1.00;;;18.00;98.20;;;;;;4997468;28;20955;-83
2021/07/09 03:58:53;;;;;;;1.50;0.97;;;18.00;98.20;;;;;;5004711;28;20526;-84
2021/07/09 04:01:28;;;;;;;1.50;0.97;;;18.00;98.20;;;;;;4999661;28;20470;-82
2021/07/09 04:03:55;;;;;;;1.50;0.90;;;18.00;98.20;;;;;;5008066;28;20474;-83
2021/07/09 04:06:26;;;;;;;1.50;0.90;;;18.00;98.20;;;;;;5003213;28;20485;-84
2021/07/09 04:09:08;;;;;;;1.50;0.90;;;18.00;98.20;;;;;;5008631;28;20460;-83
2021/07/09 04:11:37;;;;;;;1.53;1.00;;;18.00;98.20;;;;;;5006911;28;20460;-84
2021/07/09 04:14:07;;;;;;;1.50;0.90;;;18.00;98.20;;;;;;4993929;28;20461;-83
2021/07/09 04:16:34;;;;;;;1.50;1.00;;;18.00;98.20;;;;;;5007860;28;20543;-83
2021/07/09 04:19:05;;;;;;;1.50;0.90;;;18.00;98.20;;;;;;5001917;28;20923;-83
2021/07/09 04:21:42;;;;;;;1.50;0.90;;;18.00;98.20;;;;;;4998370;28;20474;-83
2021/07/09 04:24:17;;;;;;;1.50;0.90;;;18.00;98.20;;;;;;4999080;28;20953;-83
2021/07/09 04:26:47;;;;;;;1.50;0.90;;;18.00;98.20;;;;;;4992110;28;20571;-84
2021/07/09 04:29:18;;;;;;;1.50;0.90;;;18.10;98.20;;;;;;4998047;28;20969;-83
2021/07/09 04:31:45;;;;;;;1.50;0.90;;;18.10;98.20;;;;;;4992817;28;20564;-83
2021/07/09 04:34:13;;;;;;;1.50;1.00;;;18.10;98.20;;;;;;5003132;28;20480;-83
2021/07/09 04:36:46;;;;;;;1.50;1.00;;;18.10;98.20;;;;;;4998209;28;20770;-83
2021/07/09 04:39:20;;;;;;;1.50;0.93;;;18.10;98.20;;;;;;4998037;28;20468;-84
2021/07/09 04:41:50;;;;;;;1.50;1.00;;;18.10;98.20;;;;;;5004562;28;20826;-83
2021/07/09 04:44:17;;;;;;;1.50;1.00;;;18.10;98.20;;;;;;4993642;28;20485;-83
2021/07/09 04:46:47;;;;;;;1.53;1.00;;;18.10;98.20;;;;;;5001949;28;20480;-84
2021/07/09 04:49:15;;;;;;;1.50;0.97;;;18.10;98.20;;;;;;5008235;28;20951;-84
2021/07/09 04:51:43;;;;;;;1.50;0.97;;;18.10;98.20;;;;;;5002131;28;20465;-83
2021/07/09 04:54:17;;;;;;;1.50;0.90;;;18.10;98.20;;;;;;5004694;28;20484;-84
2021/07/09 04:56:45;;;;;;;1.50;0.90;;;18.10;98.20;;;;;;5007789;28;20812;-82
2021/07/09 04:59:18;;;;;;;1.50;0.90;;;18.10;98.20;;;;;;5010196;28;20472;-85
2021/07/09 05:01:51;;;;;;;1.50;1.00;;;18.10;98.20;;;;;;5008911;28;20547;-83
2021/07/09 05:04:23;;;;;;;1.50;0.90;;;18.20;98.20;;;;;;5006480;28;20484;-84
2021/07/09 05:06:55;;;;;;;1.50;0.90;;;18.20;98.20;;;;;;5000859;28;20492;-84
2021/07/09 05:09:37;;;;;;;1.50;0.93;;;18.20;98.20;;;;;;5000539;28;20479;-84
2021/07/09 05:12:05;;;;;;;1.50;0.90;;;18.20;98.20;;;;;;5001278;28;20494;-84
2021/07/09 05:14:37;;;;;;;1.50;1.00;;;18.30;98.20;;;;;;5010495;28;20492;-84
2021/07/09 05:17:05;;;;;;;1.50;0.90;;;18.30;98.20;;;;;;5002141;28;20466;-83
2021/07/09 05:19:37;;;;;;;1.50;0.90;;;18.30;98.20;;;;;;5005935;28;20805;-84
2021/07/09 05:22:10;;;;;;;1.50;0.90;;;18.30;98.20;;;;;;5011700;28;20544;-83
2021/07/09 05:24:38;;;;;;;1.50;1.00;;;18.40;98.20;;;;;;5004995;28;20488;-83
2021/07/09 05:27:08;;;;;;;1.50;0.90;;;18.40;98.20;;;;;;5010515;28;20995;-83
2021/07/09 05:29:39;;;;;;;1.53;1.00;;;18.40;98.20;;;;;;5009166;28;20901;-84
2021/07/09 05:32:07;;;;;;;1.50;0.90;;;18.50;98.20;;;;;;4998182;28;20520;-83
2021/07/09 05:34:40;;;;;;;1.53;1.00;;;18.50;98.20;;;;;;5006977;28;20597;-84
2021/07/09 05:37:45;;;;;;;1.50;0.90;;;18.60;98.20;;;;;;5006130;28;20456;-83
2021/07/09 05:43:29;;;;;;;1.50;0.90;;;18.60;98.20;;;;;;4997805;28;20555;-83
2021/07/09 05:45:57;;;;;;;1.50;0.90;;;18.60;98.20;;;;;;5012513;28;20486;-83
2021/07/09 05:48:27;;;;;;;1.50;1.00;;;18.70;98.20;;;;;;5000961;28;20595;-84
2021/07/09 05:50:54;;;;;;;1.50;0.90;;;18.70;98.20;;;;;;5000104;28;20480;-84
2021/07/09 05:53:24;;;;;;;1.50;0.90;;;18.70;98.20;;;;;;4994235;28;20465;-83
2021/07/09 05:55:53;;;;;;;1.50;0.90;;;18.70;98.20;;;;;;5001092;28;20547;-82
2021/07/09 05:58:21;;;;;;;1.50;0.90;;;18.70;98.20;;;;;;5008121;28;20499;-82
2021/07/09 06:00:49;;;;;;;1.50;0.97;;;18.70;98.20;;;;;;5004060;28;20529;-83
2021/07/09 06:03:19;;;;;;;1.50;1.00;;;18.70;98.20;;;;;;5009823;28;20739;-84
2021/07/09 06:05:50;;;;;;;1.50;0.97;;;18.80;98.20;;;;;;5005949;28;20504;-83
2021/07/09 06:08:18;;;;;;;1.50;1.00;;;18.80;98.20;;;;;;5004269;28;20482;-83
2021/07/09 06:10:54;;;;;;;1.50;0.90;;;18.80;98.20;;;;;;4998727;28;20468;-84
2021/07/09 06:13:30;;;;;;;1.50;1.00;;;18.80;98.20;;;;;;5005440;28;20504;-83
2021/07/09 06:15:58;;;;;;;1.50;0.90;;;18.80;98.20;;;;;;5008522;28;20998;-83
2021/07/09 06:18:25;;;;;;;1.50;0.90;;;18.70;98.20;;;;;;5008467;28;20461;-84
2021/07/09 06:20:55;;;;;;;1.50;1.00;;;18.70;98.20;;;;;;4993315;28;20492;-83
2021/07/09 06:23:27;;;;;;;1.50;0.97;;;18.70;98.20;;;;;;5000286;28;20510;-83
2021/07/09 06:25:57;;;;;;;1.50;0.90;;;18.70;98.20;;;;;;5003023;28;20855;-83
2021/07/09 06:28:27;;;;;;;1.50;0.90;;;18.80;98.20;;;;;;5008789;28;20480;-83
2021/07/09 06:30:54;;;;;;;1.50;1.00;;;18.80;98.20;;;;;;4999895;28;20559;-83
2021/07/09 06:33:22;;;;;;;1.50;0.90;;;18.90;98.20;;;;;;5013751;28;20982;-83
2021/07/09 06:35:49;;;;;;;1.50;0.90;;;19.00;98.20;;;;;;5011990;28;20495;-82
2021/07/09 06:38:17;;;;;;;1.50;1.00;;;19.00;98.20;;;;;;5008199;28;20523;-83
2021/07/09 06:40:45;;;;;;;1.50;0.90;;;19.10;98.20;;;;;;5006577;28;20467;-84
2021/07/09 06:43:17;;;;;;;1.80;1.40;;;19.10;98.20;;;;;;5001779;28;20847;-83
2021/07/09 06:45:46;;;;;;;1.50;0.90;;;19.10;98.20;;;;;;5005136;28;20485;-84
2021/07/09 06:48:13;;;;;;;1.50;0.90;;;19.10;98.20;;;;;;5006562;28;20484;-83
2021/07/09 06:50:40;;;;;;;1.53;0.90;;;19.10;98.20;;;;;;4999320;28;20560;-83
2021/07/09 06:53:08;;;;;;;1.50;0.93;;;19.10;98.20;;;;;;4998251;28;20833;-84
2021/07/09 06:55:38;;;;;;;1.50;0.90;;;19.10;98.20;;;;;;5004115;28;20494;-84
2021/07/09 06:58:06;;;;;;;1.50;0.90;;;19.20;98.20;;;;;;5007329;28;20500;-86
2021/07/09 07:00:35;;;;;;;1.50;0.90;;;19.30;98.20;;;;;;5003878;28;20473;-84
2021/07/09 07:03:06;;;;;;;1.50;1.00;;;19.40;98.20;;;;;;5008610;28;20495;-85
2021/07/09 07:05:37;;;;;;;1.50;0.90;;;19.40;98.20;;;;;;5008198;28;21729;-83
2021/07/09 07:08:25;;;;;;;1.50;0.90;;;19.40;98.20;;;;;;5006357;28;20484;-84
2021/07/09 07:10:54;;;;;;;1.50;0.90;;;19.50;98.20;;;;;;5006357;28;21156;-85
2021/07/09 07:13:25;;;;;;;1.50;0.90;;;19.60;98.20;;;;;;5006903;28;20477;-86
2021/07/09 07:15:59;;;;;;;1.50;0.90;;;19.70;98.20;;;;;;5005015;28;20510;-84
2021/07/09 07:18:27;;;;;;;1.60;1.10;;;19.70;98.20;;;;;;5005716;28;20910;-85
2021/07/09 07:20:55;;;;;;;1.50;0.90;;;19.70;98.20;;;;;;5006682;28;20476;-85
2021/07/09 07:23:27;;;;;;;1.50;0.90;;;19.80;98.20;;;;;;5002277;28;21182;-84
2021/07/09 07:25:55;;;;;;;1.50;0.90;;;19.90;98.20;;;;;;5005865;28;20933;-85
2021/07/09 07:28:22;;;;;;;1.50;1.00;;;19.90;98.20;;;;;;5004252;28;20485;-82
2021/07/09 07:30:57;;;;;;;1.50;0.93;;;20.00;98.20;;;;;;5011285;28;20468;-82
2021/07/09 07:33:25;;;;;;;1.50;0.90;;;20.00;98.20;;;;;;5010372;28;20471;-84
2021/07/09 07:35:52;;;;;;;1.50;0.90;;;20.10;98.20;;;;;;5010935;28;20502;-83
2021/07/09 07:38:20;;;;;;;1.50;0.90;;;20.10;98.20;;;;;;5006500;28;20590;-83
2021/07/09 07:40:48;;;;;;;1.50;0.90;;;20.10;98.20;;;;;;5010418;28;20517;-82
2021/07/09 07:43:15;;;;;;;1.60;1.00;;;20.10;98.20;;;;;;5001224;28;20464;-83
2021/07/09 07:45:43;;;;;;;1.50;0.90;;;20.20;98.20;;;;;;5015036;28;20501;-83
2021/07/09 07:48:12;;;;;;;1.50;0.90;;;20.30;98.20;;;;;;5004247;28;20481;-83
2021/07/09 07:50:40;;;;;;;1.50;0.90;;;20.40;98.20;;;;;;5000129;28;20881;-82
2021/07/09 07:53:10;;;;;;;1.50;0.90;;;20.50;98.20;;;;;;5001213;28;20461;-83
2021/07/09 07:55:40;;;;;;;1.50;0.90;;;20.60;98.20;;;;;;5001145;28;20480;-82
2021/07/09 07:58:08;;;;;;;1.50;0.90;;;20.70;98.20;;;;;;5011214;28;20498;-84
2021/07/09 08:00:36;;;;;;;1.50;0.90;;;20.80;98.20;;;;;;5003650;28;20476;-82
2021/07/09 08:03:04;;;;;;;1.50;0.90;;;20.80;98.20;;;;;;5011909;28;20472;-83
2021/07/09 08:05:32;;;;;;;1.50;0.90;;;20.80;98.20;;;;;;5000844;28;20481;-83
2021/07/09 08:07:59;;;;;;;1.50;0.90;;;20.90;98.20;;;;;;4996784;28;20495;-83
2021/07/09 08:10:27;;;;;;;1.50;0.90;;;20.90;98.20;;;;;;5005549;28;20468;-83
2021/07/09 08:12:54;;;;;;;1.50;0.90;;;21.00;98.20;;;;;;5007974;28;20472;-83
2021/07/09 08:15:22;;;;;;;1.50;0.90;;;21.20;98.20;;;;;;5010422;28;20492;-81
2021/07/09 08:17:50;;;;;;;1.50;0.90;;;21.20;98.20;;;;;;4998124;28;20491;-84
2021/07/09 08:20:18;;;;;;;1.50;0.90;;;21.30;98.20;;;;;;5004031;28;20460;-85
2021/07/09 08:22:50;;;;;;;1.50;0.90;;;21.40;98.20;;;;;;5005188;28;20656;-82
2021/07/09 08:25:22;;;;;;;1.50;0.90;;;21.60;98.20;;;;;;5001835;28;20538;-83
2021/07/09 08:27:56;;;;;;;1.50;0.90;;;21.90;98.20;;;;;;5009058;28;20508;-83
2021/07/09 08:30:23;;;;;;;1.57;1.00;;;22.10;98.20;;;;;;5000936;28;20468;-83
2021/07/09 08:32:54;;;;;;;1.50;0.90;;;22.30;98.20;;;;;;5005622;28;20475;-83
2021/07/09 08:35:22;;;;;;;1.50;0.90;;;22.40;98.20;;;;;;5009773;28;20557;-83
2021/07/09 08:37:52;;;;;;;1.50;0.90;;;22.60;98.20;;;;;;5005883;28;20465;-80
2021/07/09 08:40:19;;;;;;;1.50;0.90;;;22.70;98.20;;;;;;4992976;28;20472;-82
2021/07/09 08:42:48;;;;;;;1.50;0.90;;;22.80;97.50;;;;;;5005573;28;21174;-83
2021/07/09 08:48:39;;;;;;;1.50;0.90;;;22.80;98.20;;;;;;5007316;28;20471;-84
2021/07/09 08:51:10;;;;;;;3.40;1.50;;;22.90;98.20;;;;;;5007769;28;20998;-82
2021/07/09 08:53:39;;;;;;;1.50;0.90;;;22.90;98.20;;;;;;5008382;28;21093;-82
2021/07/09 08:56:08;;;;;;;1.50;0.90;;;23.00;98.10;;;;;;4999090;28;20481;-81
2021/07/09 08:58:45;;;;;;;1.50;0.90;;;23.00;98.00;;;;;;5009938;28;20543;-81
2021/07/09 09:01:14;;;;;;;1.50;0.90;;;23.00;98.00;;;;;;4999370;28;20486;-79
2021/07/09 09:03:43;;;;;;;1.50;0.90;;;22.90;97.40;;;;;;5003376;28;20471;-81
2021/07/09 09:06:16;;;;;;;1.50;0.90;;;23.00;97.80;;;;;;5007708;28;20528;-81
2021/07/09 09:08:44;;;;;;;1.50;0.90;;;23.00;98.00;;;;;;5001806;28;20489;-80
2021/07/09 09:11:12;;;;;;;1.50;0.90;;;23.00;97.50;;;;;;4997168;28;20472;-81
2021/07/09 09:13:40;;;;;;;1.50;0.90;;;23.10;96.70;;;;;;5002469;28;20517;-86
2021/07/09 09:16:10;;;;;;;1.50;0.90;;;23.00;97.20;;;;;;4995712;28;20630;-85
2021/07/09 09:18:39;;;;;;;1.50;0.90;;;22.90;96.90;;;;;;5004864;28;20564;-84
2021/07/09 09:21:09;;;;;;;1.50;0.90;;;22.70;97.10;;;;;;5005457;28;20472;-85
2021/07/09 09:23:53;;;;;;;1.50;0.90;;;22.60;97.50;;;;;;4997473;28;20467;-85
2021/07/09 09:26:43;;;;;;;1.50;0.90;;;22.50;97.70;;;;;;5006181;28;20546;-84
2021/07/09 09:29:16;;;;;;;1.50;0.90;;;22.50;98.20;;;;;;4992206;28;20559;-83
2021/07/09 09:31:51;;;;;;;1.50;0.90;;;22.40;98.20;;;;;;5000694;28;20963;-84
2021/07/09 09:34:39;;;;;;;1.50;0.90;;;22.40;98.20;;;;;;5005247;28;20488;-84
2021/07/09 09:37:10;;;;;;;1.50;0.90;;;22.30;97.80;;;;;;4999645;28;20500;-83
2021/07/09 09:39:44;;;;;;;1.50;0.90;;;22.30;98.00;;;;;;4999526;28;20468;-84
2021/07/09 09:42:23;;;;;;;2.27;1.33;;;22.20;97.30;;;;;;5001507;28;20473;-83
2021/07/09 09:45:00;;;;;;;1.50;0.90;;;22.20;97.20;;;;;;5006795;28;20481;-87
2021/07/09 09:47:35;;;;;;;1.50;0.90;;;22.20;97.00;;;;;;5006805;28;20464;-84
2021/07/09 09:50:07;;;;;;;1.50;0.90;;;22.10;97.60;;;;;;5005427;28;20470;-83
2021/07/09 09:52:40;;;;;;;1.50;0.90;;;22.20;97.20;;;;;;5005916;28;20464;-85
2021/07/09 09:55:13;;;;;;;1.50;0.90;;;22.40;96.60;;;;;;5001703;28;20487;-83
2021/07/09 09:57:48;;;;;;;1.50;0.90;;;22.60;96.40;;;;;;5011850;28;21300;-84
2021/07/09 10:00:37;;;;;;;1.50;0.90;;;22.70;96.70;;;;;;5005469;28;20487;-82
2021/07/09 10:03:08;;;;;;;1.50;0.90;;;22.90;95.30;;;;;;5009326;28;20472;-82
2021/07/09 10:05:40;;;;;;;1.50;0.90;;;23.00;94.70;;;;;;4998327;28;21296;-83
2021/07/09 10:08:16;;;;;;;1.50;0.90;;;23.00;94.90;;;;;;4998904;28;21058;-85
2021/07/09 10:10:44;;;;;;;1.50;0.90;;;23.10;94.80;;;;;;5005200;28;20514;-84
2021/07/09 10:13:28;;;;;;;1.50;0.90;;;23.10;95.40;;;;;;4998224;28;20532;-84
2021/07/09 10:15:58;;;;;;;1.70;1.37;;;23.30;95.40;;;;;;4999287;28;20516;-84
2021/07/09 10:18:29;;;;;;;1.50;0.87;;;23.50;94.10;;;;;;4991441;28;20832;-83
2021/07/09 10:21:12;;;;;;;1.53;0.90;;;23.80;93.70;;;;;;5000810;28;20468;-84
2021/07/09 10:23:43;;;;;;;1.57;0.90;;;24.10;92.60;;;;;;5005293;28;20464;-84
2021/07/09 10:26:11;;;;;;;1.50;0.90;;;24.20;90.70;;;;;;5001659;28;21362;-85
2021/07/09 10:28:43;;;;;;;1.50;0.90;;;24.30;89.70;;;;;;5002954;28;20587;-84
2021/07/09 10:31:38;;;;;;;1.53;0.90;;;24.40;89.40;;;;;;5011839;28;20526;-83
2021/07/09 10:34:23;;;;;;;1.53;0.90;;;24.50;88.50;;;;;;5004729;28;20487;-83
2021/07/09 10:36:53;;;;;;;1.57;0.90;;;24.50;87.50;;;;;;4989985;28;20530;-82
2021/07/09 10:39:35;;;;;;;1.50;0.90;;;24.60;88.30;;;;;;5006431;28;20464;-83
2021/07/09 10:42:22;;;;;;;1.50;0.80;;;24.80;85.30;;;;;;5007522;28;20965;-84
2021/07/09 10:45:34;;;;;;;1.50;0.90;;;25.10;85.70;;;;;;5008528;28;20534;-82
2021/07/09 10:51:15;;;;;;;1.50;0.80;;;25.70;85.80;;;;;;5008180;28;20531;-85
2021/07/09 10:53:45;;;;;;;1.50;0.90;;;26.00;85.70;;;;;;5016113;28;20471;-85
2021/07/09 10:59:04;;;;;;;1.70;1.30;;;26.40;82.70;;;;;;4973057;28;20481;-82
2021/07/09 11:01:45;;;;;;;1.50;0.80;;;26.50;83.00;;;;;;5010973;28;20501;-83
2021/07/09 11:04:26;;;;;;;1.50;0.90;;;26.60;83.60;;;;;;5005764;28;20495;-84
2021/07/09 11:07:21;;;;;;;1.50;0.87;;;26.80;83.00;;;;;;5011352;28;21009;-84
2021/07/09 11:09:52;;;;;;;1.50;0.80;;;27.20;82.10;;;;;;5007534;28;20870;-84
2021/07/09 11:12:30;;;;;;;1.50;0.80;;;27.60;81.30;;;;;;5005081;28;20568;-84
2021/07/09 11:15:08;;;;;;;1.53;0.90;;;27.90;80.40;;;;;;4994272;28;20554;-83
2021/07/09 11:17:47;;;;;;;1.53;0.80;;;27.90;80.40;;;;;;5011513;28;20468;-84
2021/07/09 11:20:23;;;;;;;1.50;0.80;;;27.80;78.80;;;;;;5013044;28;20455;-86
2021/07/09 11:22:54;;;;;;;1.50;0.90;;;27.70;79.80;;;;;;5001489;28;20471;-85
2021/07/09 11:25:28;;;;;;;1.50;0.80;;;27.50;80.90;;;;;;5013736;28;21081;-85
2021/07/09 11:28:38;;;;;;;1.50;0.80;;;27.30;81.30;;;;;;5006952;28;20472;-85
2021/07/09 11:31:07;;;;;;;1.50;0.90;;;27.10;80.40;;;;;;5007020;28;20483;-84
2021/07/09 11:33:43;;;;;;;1.50;0.80;;;26.90;80.30;;;;;;5011260;28;20539;-84
2021/07/09 11:36:26;;;;;;;1.50;0.90;;;26.90;81.40;;;;;;5007432;28;20855;-84
2021/07/09 11:39:06;;;;;;;1.50;0.80;;;27.00;81.20;;;;;;5004774;28;20455;-82
2021/07/09 11:41:46;;;;;;;1.50;0.90;;;27.30;79.60;;;;;;5003947;28;21065;-84
2021/07/09 11:44:19;;;;;;;1.50;0.80;;;27.60;79.50;;;;;;5004003;28;21005;-85
2021/07/09 11:47:00;;;;;;;1.50;0.80;;;27.90;78.70;;;;;;5004291;28;20514;-83
2021/07/09 11:49:36;;;;;;;1.50;0.83;;;28.00;78.00;;;;;;5010500;28;20493;-85
2021/07/09 11:52:10;;;;;;;1.50;0.80;;;27.90;77.90;;;;;;5012769;28;20463;-83
2021/07/09 11:54:48;;;;;;;1.50;0.90;;;28.00;77.60;;;;;;5007383;28;20904;-85
2021/07/09 11:57:18;;;;;;;1.50;0.80;;;28.00;77.40;;;;;;5006728;28;20518;-83
2021/07/09 11:59:51;;;;;;;1.50;0.90;;;28.00;76.90;;;;;;5009463;28;21062;-85
2021/07/09 12:02:22;;;;;;;1.50;0.80;;;28.20;75.10;;;;;;5013550;28;20460;-86
2021/07/09 12:04:52;;;;;;;1.50;0.90;;;28.40;76.50;;;;;;4997021;28;20828;-80
2021/07/09 12:07:31;;;;;;;1.50;0.90;;;28.50;75.20;;;;;;5006949;28;20468;-84
2021/07/09 12:10:13;;;;;;;1.47;0.80;;;28.50;76.00;;;;;;4999689;28;20498;-85
2021/07/09 12:13:27;;;;;;;1.50;0.80;;;28.60;74.70;;;;;;5005561;28;20470;-84
2021/07/09 12:16:06;;;;;;;1.50;0.80;;;28.80;74.20;;;;;;4993187;28;20488;-83
2021/07/09 12:18:39;;;;;;;1.43;0.80;;;28.90;74.20;;;;;;5004931;28;20467;-85
2021/07/09 12:21:16;;;;;;;1.50;0.87;;;29.00;73.90;;;;;;5006798;28;20494;-83
2021/07/09 12:23:47;;;;;;;1.50;0.87;;;28.90;74.00;;;;;;5006780;28;20631;-84
2021/07/09 12:26:18;;;;;;;1.50;0.80;;;29.10;74.10;;;;;;5002725;28;21007;-83
2021/07/09 12:29:08;;;;;;;;;;;;;;;;;;;;;
2021/07/09 12:31:44;;;;;;;1.47;0.80;;;29.60;72.50;;;;;;5003596;28;20580;-83
2021/07/09 12:34:29;;;;;;;1.50;0.90;;;29.70;72.30;;;;;;5004871;28;20488;-84
2021/07/09 12:37:05;;;;;;;1.47;0.87;;;30.00;71.50;;;;;;4999711;28;20746;-84
2021/07/09 12:39:36;;;;;;;1.50;0.80;;;30.20;71.60;;;;;;5004071;28;20479;-85
2021/07/09 12:42:34;;;;;;;1.50;0.80;;;30.40;71.40;;;;;;4990673;28;20460;-85
2021/07/09 12:45:01;;;;;;;1.50;0.80;;;30.50;71.60;;;;;;4996507;28;20619;-85
2021/07/09 12:48:07;;;;;;;1.50;0.80;;;30.60;69.90;;;;;;4995036;28;20467;-85
2021/07/09 12:51:02;;;;;;;1.50;0.80;;;30.80;69.40;;;;;;5003905;28;20482;-86
2021/07/09 12:53:35;;;;;;;1.50;0.80;;;30.60;69.20;;;;;;5003202;28;20460;-85
2021/07/09 12:56:19;;;;;;;1.50;0.90;;;30.30;69.90;;;;;;5005062;28;20574;-84
2021/07/09 12:58:49;;;;;;;1.50;0.90;;;29.80;71.30;;;;;;5007313;28;20471;-85
2021/07/09 13:01:16;;;;;;;1.50;0.80;;;29.60;72.50;;;;;;5002969;28;20476;-86
2021/07/09 13:03:45;;;;;;;1.47;0.83;;;29.30;72.80;;;;;;5007503;28;20483;-84
2021/07/09 13:06:17;;;;;;;1.50;0.80;;;29.00;71.80;;;;;;5000620;28;20973;-83
2021/07/09 13:08:46;;;;;;;1.50;0.83;;;28.70;72.80;;;;;;5007136;28;20468;-85
2021/07/09 13:11:45;;;;;;;1.50;0.80;;;28.40;73.70;;;;;;5009400;28;20473;-84
2021/07/09 13:14:29;;;;;;;1.50;0.80;;;28.20;74.10;;;;;;5003802;28;20487;-83
2021/07/09 13:16:58;;;;;;;1.50;0.80;;;27.90;74.20;;;;;;5002937;28;20464;-85
2021/07/09 13:19:40;;;;;;;1.50;0.90;;;27.70;75.50;;;;;;5000369;28;20487;-82
2021/07/09 13:22:19;;;;;;;1.50;0.80;;;27.70;75.80;;;;;;4997585;28;20541;-85
2021/07/09 13:25:15;;;;;;;1.47;0.80;;;27.60;75.40;;;;;;4997149;28;20553;-84
2021/07/09 13:27:43;;;;;;;1.50;0.90;;;27.60;75.70;;;;;;5007032;28;20490;-84
2021/07/09 13:30:14;;;;;;;1.47;0.80;;;27.50;75.80;;;;;;5008142;28;20460;-84